Time;durP1;ratioP1;P1;durP2;ratioP2;P2;SDS_P1;SDS_P2;PMS_P1;PMS_P2;Temp;Humidity;BMP_temperature;BMP_pressure;BME280_temperature;BME280_humidity;BME280_pressure;Samples;Min_cycle;Max_cycle;Signal;HPM_P1;HPM_P2
2023/03/14 00:00:56;;;;;;;;;;;;;;;11.95;81.54;98803.50;4177926;28;20016;-65
2023/03/14 00:02:58;;;;;;;;;;;;;;;11.96;80.65;98809.72;4177240;28;20379;-66
2023/03/14 00:05:02;;;;;;;;;;;;;;;11.95;80.82;98817.00;4177009;28;20017;-66
2023/03/14 00:07:04;;;;;;;;;;;;;;;11.95;80.92;98819.72;4177256;28;20056;-67
2023/03/14 00:09:10;;;;;;;;;;;;;;;11.93;80.12;98813.72;4177823;28;20019;-65
2023/03/14 00:11:13;;;;;;;;;;;;;;;11.92;79.68;98811.22;4177419;28;20612;-66
2023/03/14 00:13:17;;;;;;;;;;;;;;;11.91;80.04;98823.91;4176453;28;20028;-67
2023/03/14 00:15:19;;;;;;;;;;;;;;;11.90;79.68;98812.28;4177139;28;20043;-67
2023/03/14 00:17:22;;;;;;;;;;;;;;;11.89;80.65;98804.38;4176845;28;20446;-66
2023/03/14 00:19:24;;;;;;;;;;;;;;;11.86;81.15;98778.63;4177306;28;20031;-66
2023/03/14 00:21:26;;;;;;;;;;;;;;;11.84;81.02;98778.03;4176529;28;20019;-66
2023/03/14 00:23:28;;;;;;;;;;;;;;;11.81;80.88;98764.97;4176669;28;20032;-66
2023/03/14 00:25:32;;;;;;;;;;;;;;;11.80;80.94;98762.50;4176785;28;20028;-66
2023/03/14 00:27:34;;;;;;;;;;;;;;;11.78;81.11;98749.22;4177401;28;20560;-66
2023/03/14 00:29:37;;;;;;;;;;;;;;;11.76;80.56;98745.94;4167255;28;20039;-65
2023/03/14 00:31:39;;;;;;;;;;;;;;;11.75;81.29;98748.88;4177055;28;20024;-64
2023/03/14 00:33:44;;;;;;;;;;;;;;;11.72;80.85;98751.00;4177296;28;20016;-65
2023/03/14 00:35:52;;;;;;;;;;;;;;;11.72;81.10;98763.66;4177980;28;20024;-64
2023/03/14 00:37:54;;;;;;;;;;;;;;;11.70;81.10;98749.56;4177146;28;20630;-66
2023/03/14 00:39:58;;;;;;;;;;;;;;;11.68;81.04;98727.34;4177339;28;20623;-66
2023/03/14 00:42:02;;;;;;;;;;;;;;;11.68;81.53;98735.47;4176355;28;20011;-65
2023/03/14 00:44:04;;;;;;;;;;;;;;;11.66;81.49;98737.56;4177739;28;20059;-66
2023/03/14 00:46:07;;;;;;;;;;;;;;;11.64;81.56;98737.78;4178825;28;20019;-65
2023/03/14 00:48:09;;;;;;;;;;;;;;;11.63;81.42;98746.97;4180011;28;20027;-64
2023/03/14 00:50:12;;;;;;;;;;;;;;;11.62;81.50;98750.72;4180748;28;20035;-65
2023/03/14 00:52:14;;;;;;;;;;;;;;;11.61;81.93;98745.56;4162272;28;20462;-65
2023/03/14 00:54:16;;;;;;;;;;;;;;;11.61;81.81;98737.44;4180678;28;20521;-65
2023/03/14 00:56:18;;;;;;;;;;;;;;;11.59;81.39;98731.47;4181112;28;20024;-66
2023/03/14 00:58:21;;;;;;;;;;;;;;;11.60;82.24;98728.53;4178651;28;20013;-66
2023/03/14 01:00:23;;;;;;;;;;;;;;;11.60;82.34;98724.97;4195950;28;20023;-65
2023/03/14 01:02:25;;;;;;;;;;;;;;;11.53;81.85;98715.09;4179948;28;20015;-64
2023/03/14 01:04:30;;;;;;;;;;;;;;;11.57;81.82;98715.47;4179676;28;20087;-64
2023/03/14 01:06:32;;;;;;;;;;;;;;;11.54;81.69;98713.22;4180434;28;19932;-65
2023/03/14 01:08:34;;;;;;;;;;;;;;;11.53;81.53;98701.56;4195616;28;20011;-65
2023/03/14 01:10:38;;;;;;;;;;;;;;;11.54;81.87;98703.22;4179523;28;20027;-66
2023/03/14 01:12:40;;;;;;;;;;;;;;;11.53;81.92;98704.28;4180087;28;20830;-65
2023/03/14 01:14:45;;;;;;;;;;;;;;;11.50;81.44;98706.63;4170398;28;20023;-64
2023/03/14 01:16:47;;;;;;;;;;;;;;;11.49;81.61;98713.13;4194527;28;20031;-65
2023/03/14 01:18:49;;;;;;;;;;;;;;;11.49;81.77;98715.81;4180160;28;20023;-66
2023/03/14 01:20:52;;;;;;;;;;;;;;;11.50;82.05;98728.25;4180438;28;20023;-66
2023/03/14 01:22:54;;;;;;;;;;;;;;;11.51;82.39;98749.66;4179144;28;20050;-65
2023/03/14 01:24:56;;;;;;;;;;;;;;;11.51;81.95;98762.34;4180361;28;20020;-65
2023/03/14 01:26:58;;;;;;;;;;;;;;;11.52;82.04;98769.41;4179821;28;20043;-66
2023/03/14 01:29:02;;;;;;;;;;;;;;;11.53;81.68;98787.25;4179231;28;20011;-66
2023/03/14 01:31:06;;;;;;;;;;;;;;;11.51;81.56;98765.88;4179513;28;20036;-65
2023/03/14 01:33:13;;;;;;;;;;;;;;;11.53;81.92;98766.44;4179098;28;20402;-65
2023/03/14 01:35:15;;;;;;;;;;;;;;;11.52;81.56;98772.13;4170416;28;20056;-65
2023/03/14 01:37:20;;;;;;;;;;;;;;;11.50;81.53;98777.75;4179948;28;19935;-66
2023/03/14 01:39:22;;;;;;;;;;;;;;;11.49;81.39;98767.19;4179171;28;20103;-66
2023/03/14 01:41:25;;;;;;;;;;;;;;;11.50;81.72;98766.09;4172590;28;20015;-66
2023/03/14 01:43:30;;;;;;;;;;;;;;;11.48;81.55;98760.94;4195674;28;20011;-66
2023/03/14 01:45:49;;;;;;;;;;;;;;;11.49;81.50;98770.69;4194925;28;20027;-66
2023/03/14 01:47:53;;;;;;;;;;;;;;;11.49;81.54;98776.09;4138297;28;20027;-65
2023/03/14 01:49:57;;;;;;;;;;;;;;;11.50;81.76;98795.84;4171127;28;19975;-65
2023/03/14 01:52:00;;;;;;;;;;;;;;;11.49;81.76;98789.63;4170085;28;20027;-65
2023/03/14 01:54:04;;;;;;;;;;;;;;;11.48;81.84;98784.44;4195362;28;20441;-65
2023/03/14 01:56:06;;;;;;;;;;;;;;;11.47;81.69;98783.63;4193898;28;20023;-66
2023/03/14 01:58:08;;;;;;;;;;;;;;;11.46;81.70;98792.78;4176521;28;20023;-66
2023/03/14 02:00:12;;;;;;;;;;;;;;;11.45;81.85;98785.72;4194196;28;20006;-65
2023/03/14 02:02:18;;;;;;;;;;;;;;;11.43;82.10;98774.31;4177876;28;20019;-65
2023/03/14 02:04:22;;;;;;;;;;;;;;;11.44;82.14;98775.97;4179338;28;20027;-65
2023/03/14 02:06:25;;;;;;;;;;;;;;;11.43;82.17;98774.31;4194389;28;20404;-65
2023/03/14 02:08:27;;;;;;;;;;;;;;;11.42;81.93;98758.34;4178282;28;20398;-64
2023/03/14 02:10:35;;;;;;;;;;;;;;;11.42;82.18;98755.63;4170952;28;20019;-65
2023/03/14 02:12:38;;;;;;;;;;;;;;;11.41;82.27;98756.66;4169719;28;20490;-65
2023/03/14 02:14:47;;;;;;;;;;;;;;;11.41;81.93;98751.25;4194267;28;20545;-64
2023/03/14 02:17:11;;;;;;;;;;;;;;;11.40;81.91;98745.03;4170575;28;20047;-65
2023/03/14 02:19:51;;;;;;;;;;;;;;;11.39;81.74;98748.78;4183827;28;20019;-65
2023/03/14 02:22:10;;;;;;;;;;;;;;;11.37;81.40;98742.81;4177958;28;20019;-65
2023/03/14 02:24:28;;;;;;;;;;;;;;;11.38;81.57;98732.81;4168581;28;20248;-65
2023/03/14 02:26:37;;;;;;;;;;;;;;;11.39;82.00;98745.28;4172123;28;20446;-65
2023/03/14 02:28:41;;;;;;;;;;;;;;;11.36;81.59;98736.59;4170367;28;19929;-64
2023/03/14 02:30:43;;;;;;;;;;;;;;;11.35;81.39;98732.22;4167773;28;20020;-64
2023/03/14 02:32:47;;;;;;;;;;;;;;;11.33;81.25;98733.50;4171925;28;20044;-64
2023/03/14 02:34:50;;;;;;;;;;;;;;;11.31;81.51;98741.84;4193982;28;20099;-64
2023/03/14 02:36:53;;;;;;;;;;;;;;;11.34;81.52;98743.25;4178830;28;20011;-65
2023/03/14 02:38:57;;;;;;;;;;;;;;;11.33;81.67;98734.34;4177932;28;20007;-64
2023/03/14 02:41:01;;;;;;;;;;;;;;;11.35;81.45;98726.00;4177856;28;20015;-65
2023/03/14 02:43:06;;;;;;;;;;;;;;;11.34;81.35;98735.97;4177365;28;20031;-65
2023/03/14 02:45:28;;;;;;;;;;;;;;;11.33;81.29;98728.09;4166623;28;20450;-66
2023/03/14 02:47:32;;;;;;;;;;;;;;;11.34;81.59;98727.88;4177348;28;20019;-66
2023/03/14 02:49:34;;;;;;;;;;;;;;;11.35;81.32;98723.31;4177897;28;20033;-65
2023/03/14 02:51:36;;;;;;;;;;;;;;;11.34;81.39;98722.47;4178519;28;20035;-66
2023/03/14 02:53:46;;;;;;;;;;;;;;;11.34;81.44;98716.25;4194226;28;20024;-66
2023/03/14 02:55:49;;;;;;;;;;;;;;;11.32;81.56;98708.38;4194113;28;19934;-65
2023/03/14 02:57:53;;;;;;;;;;;;;;;11.32;81.39;98696.75;4177167;28;20011;-65
2023/03/14 02:59:55;;;;;;;;;;;;;;;11.33;81.75;98690.25;4170325;28;20020;-65
2023/03/14 03:01:57;;;;;;;;;;;;;;;11.34;81.73;98691.91;4177337;28;20016;-66
2023/03/14 03:04:02;;;;;;;;;;;;;;;11.33;81.52;98704.63;4154133;28;20045;-66
2023/03/14 03:06:04;;;;;;;;;;;;;;;11.32;81.21;98691.34;4164586;28;20032;-65
2023/03/14 03:08:06;;;;;;;;;;;;;;;11.31;81.09;98673.47;4168674;28;20007;-66
2023/03/14 03:10:10;;;;;;;;;;;;;;;11.31;81.05;98665.34;4192675;28;20050;-65
2023/03/14 03:12:12;;;;;;;;;;;;;;;11.30;81.32;98667.25;4162456;28;19929;-66
2023/03/14 03:14:14;;;;;;;;;;;;;;;11.29;81.02;98654.78;4192530;28;20026;-66
2023/03/14 03:16:16;;;;;;;;;;;;;;;11.28;80.88;98644.19;4178679;28;20386;-66
2023/03/14 03:18:22;;;;;;;;;;;;;;;11.29;80.90;98630.47;4177154;28;20512;-65
2023/03/14 03:20:25;;;;;;;;;;;;;;;11.27;80.80;98634.44;4153276;28;20012;-65
2023/03/14 03:22:27;;;;;;;;;;;;;;;11.21;80.57;98613.75;4178410;28;20020;-65
2023/03/14 03:24:29;;;;;;;;;;;;;;;11.24;80.32;98611.44;4193740;28;20027;-66
2023/03/14 03:26:31;;;;;;;;;;;;;;;11.23;80.45;98615.16;4178023;28;20012;-66
2023/03/14 03:28:33;;;;;;;;;;;;;;;11.22;80.53;98623.50;4177312;28;20458;-66
2023/03/14 03:30:38;;;;;;;;;;;;;;;11.21;80.45;98655.13;4177263;28;20016;-66
2023/03/14 03:32:40;;;;;;;;;;;;;;;11.22;80.66;98667.56;4176865;28;20066;-65
2023/03/14 03:34:44;;;;;;;;;;;;;;;11.22;80.71;98667.56;4178298;28;19959;-66
2023/03/14 03:36:50;;;;;;;;;;;;;;;11.23;80.71;98663.00;4177111;28;20007;-66
2023/03/14 03:38:53;;;;;;;;;;;;;;;11.23;80.59;98657.59;4165924;28;20028;-66
2023/03/14 03:40:55;;;;;;;;;;;;;;;11.23;80.81;98668.41;4176118;28;20011;-66
2023/03/14 03:43:00;;;;;;;;;;;;;;;11.24;80.79;98672.72;4152314;28;19936;-66
2023/03/14 03:45:03;;;;;;;;;;;;;;;11.23;80.70;98693.53;4168910;28;20020;-66
2023/03/14 03:47:07;;;;;;;;;;;;;;;11.24;80.45;98668.16;4167267;28;20493;-66
2023/03/14 03:49:09;;;;;;;;;;;;;;;11.25;80.96;98677.09;4177725;28;20788;-66
2023/03/14 03:51:15;;;;;;;;;;;;;;;11.24;80.43;98667.31;4193261;28;20024;-67
2023/03/14 03:53:18;;;;;;;;;;;;;;;11.22;80.03;98666.75;4175866;28;20023;-67
2023/03/14 03:55:21;;;;;;;;;;;;;;;11.22;80.27;98662.16;4176196;28;20024;-67
2023/03/14 03:57:23;;;;;;;;;;;;;;;11.22;80.43;98667.56;4175904;28;20351;-66
2023/03/14 03:59:26;;;;;;;;;;;;;;;11.22;80.27;98655.94;4177244;28;20023;-66
2023/03/14 04:01:28;;;;;;;;;;;;;;;11.20;80.18;98652.66;4175286;28;20592;-66
2023/03/14 04:03:32;;;;;;;;;;;;;;;11.18;80.27;98659.09;4183945;28;20028;-66
2023/03/14 04:05:35;;;;;;;;;;;;;;;11.18;80.42;98663.69;4177812;28;20025;-66
2023/03/14 04:07:42;;;;;;;;;;;;;;;11.17;80.33;98672.84;4165784;28;20028;-67
2023/03/14 04:09:47;;;;;;;;;;;;;;;11.15;79.97;98656.06;4169451;28;20486;-66
2023/03/14 04:12:07;;;;;;;;;;;;;;;11.14;79.98;98646.28;4172944;28;20434;-66
2023/03/14 04:14:29;;;;;;;;;;;;;;;11.12;79.78;98654.63;4192587;28;20019;-66
2023/03/14 04:16:51;;;;;;;;;;;;;;;11.10;79.83;98667.56;4168410;28;20008;-65
2023/03/14 04:18:55;;;;;;;;;;;;;;;11.12;79.67;98662.72;4169723;28;20032;-66
2023/03/14 04:20:59;;;;;;;;;;;;;;;11.13;79.72;98655.47;4192943;28;20465;-66
2023/03/14 04:23:09;;;;;;;;;;;;;;;11.13;79.67;98652.78;4194807;28;20470;-66
2023/03/14 04:25:12;;;;;;;;;;;;;;;11.11;79.60;98644.03;4195091;28;20015;-64
2023/03/14 04:27:20;;;;;;;;;;;;;;;11.08;79.29;98634.56;4177760;28;20035;-64
2023/03/14 04:29:25;;;;;;;;;;;;;;;11.07;79.25;98648.28;4180538;28;20012;-65
2023/03/14 04:31:27;;;;;;;;;;;;;;;11.04;79.00;98635.25;4178934;28;20020;-67
2023/03/14 04:33:29;;;;;;;;;;;;;;;11.02;79.14;98629.22;4178179;28;20028;-65
2023/03/14 04:35:32;;;;;;;;;;;;;;;11.00;79.54;98629.47;4178356;28;20450;-66
2023/03/14 04:37:39;;;;;;;;;;;;;;;11.03;79.60;98639.00;4178606;28;20067;-64
2023/03/14 04:39:43;;;;;;;;;;;;;;;11.05;79.63;98612.56;4177476;28;20017;-64
2023/03/14 04:41:54;;;;;;;;;;;;;;;11.04;79.29;98627.94;4171498;28;20015;-65
2023/03/14 04:43:57;;;;;;;;;;;;;;;11.05;79.56;98615.25;4170294;28;20016;-66
2023/03/14 04:45:59;;;;;;;;;;;;;;;11.04;79.53;98625.25;4172470;28;20462;-65
2023/03/14 04:48:02;;;;;;;;;;;;;;;11.04;79.04;98622.56;4179609;28;20095;-65
2023/03/14 04:50:06;;;;;;;;;;;;;;;11.02;78.68;98613.88;4179281;28;20015;-65
2023/03/14 04:52:11;;;;;;;;;;;;;;;10.99;78.46;98609.75;4178725;28;20032;-65
2023/03/14 04:54:13;;;;;;;;;;;;;;;10.94;78.39;98600.66;4179155;28;20032;-65
2023/03/14 04:56:16;;;;;;;;;;;;;;;10.93;78.48;98580.16;4180181;28;20028;-65
2023/03/14 04:58:21;;;;;;;;;;;;;;;10.91;78.27;98574.13;4178504;28;20509;-65
2023/03/14 05:00:24;;;;;;;;;;;;;;;10.92;78.44;98568.50;4179148;28;20302;-64
2023/03/14 05:02:50;;;;;;;;;;;;;;;10.93;78.50;98589.06;4170644;28;20015;-65
2023/03/14 05:05:11;;;;;;;;;;;;;;;10.94;78.39;98604.22;4179639;28;20052;-65
2023/03/14 05:07:36;;;;;;;;;;;;;;;10.95;78.44;98611.25;4170955;28;20665;-65
2023/03/14 05:09:58;;;;;;;;;;;;;;;10.92;77.91;98602.78;4178784;28;20024;-65
2023/03/14 05:12:20;;;;;;;;;;;;;;;10.91;77.91;98603.84;4179286;28;20012;-64
2023/03/14 05:14:35;;;;;;;;;;;;;;;10.90;77.57;98607.59;4195487;28;19959;-64
2023/03/14 05:16:46;;;;;;;;;;;;;;;10.90;77.73;98604.91;4178234;28;20004;-64
2023/03/14 05:19:06;;;;;;;;;;;;;;;10.90;77.80;98596.81;4179849;28;20020;-65
2023/03/14 05:21:32;;;;;;;;;;;;;;;10.87;77.51;98587.28;4182192;28;19933;-65
2023/03/14 05:24:03;;;;;;;;;;;;;;;10.85;77.30;98572.38;4178814;28;20024;-64
2023/03/14 05:26:21;;;;;;;;;;;;;;;10.82;77.10;98587.97;4177806;28;20035;-65
2023/03/14 05:28:36;;;;;;;;;;;;;;;10.81;76.89;98575.53;4178733;28;20103;-64
2023/03/14 05:31:02;;;;;;;;;;;;;;;10.83;76.93;98567.22;4185261;28;20389;-64
2023/03/14 05:33:20;;;;;;;;;;;;;;;10.81;76.70;98561.19;4169007;28;20457;-63
2023/03/14 05:35:41;;;;;;;;;;;;;;;10.82;76.71;98579.88;4175348;28;20475;-65
2023/03/14 05:38:01;;;;;;;;;;;;;;;10.83;76.43;98564.50;4175066;28;20020;-62
2023/03/14 05:40:16;;;;;;;;;;;;;;;10.84;76.57;98586.94;4175397;28;20020;-64
2023/03/14 05:42:40;;;;;;;;;;;;;;;10.84;77.16;98560.75;4175673;28;19924;-63
2023/03/14 05:45:00;;;;;;;;;;;;;;;10.85;76.77;98575.09;4177076;28;20008;-63
2023/03/14 05:47:26;;;;;;;;;;;;;;;10.88;76.52;98590.78;4176295;28;20024;-63
2023/03/14 05:49:44;;;;;;;;;;;;;;;10.86;76.34;98588.34;4190148;28;20407;-63
2023/03/14 05:51:49;;;;;;;;;;;;;;;10.85;75.62;98592.09;4193549;28;19974;-63
2023/03/14 05:54:20;;;;;;;;;;;;;;;10.84;75.48;98595.84;4185873;28;20038;-63
2023/03/14 05:56:51;;;;;;;;;;;;;;;10.86;75.39;98576.72;4209627;28;20050;-63
2023/03/14 05:59:02;;;;;;;;;;;;;;;10.86;75.26;98590.22;4178634;28;20020;-62
2023/03/14 06:01:22;;;;;;;;;;;;;;;10.84;75.52;98582.34;4177724;28;20040;-63
2023/03/14 06:03:39;;;;;;;;;;;;;;;10.87;75.89;98578.38;4177637;28;20032;-62
2023/03/14 06:05:42;;;;;;;;;;;;;;;10.87;75.43;98571.06;4168585;28;20024;-62
2023/03/14 06:07:44;;;;;;;;;;;;;;;10.88;75.63;98566.50;4168696;28;20051;-63
2023/03/14 06:09:47;;;;;;;;;;;;;;;10.87;75.39;98568.38;4151758;28;20126;-63
2023/03/14 06:11:51;;;;;;;;;;;;;;;10.87;74.86;98579.19;4193688;28;20003;-63
2023/03/14 06:13:54;;;;;;;;;;;;;;;10.87;74.86;98592.69;4177341;28;20647;-62
2023/03/14 06:15:56;;;;;;;;;;;;;;;10.86;74.67;98569.47;4179435;28;20039;-63
2023/03/14 06:17:58;;;;;;;;;;;;;;;10.87;74.85;98570.25;4168088;28;20710;-63
2023/03/14 06:20:03;;;;;;;;;;;;;;;10.87;74.76;98579.19;4176482;28;20019;-63
2023/03/14 06:22:06;;;;;;;;;;;;;;;10.87;74.90;98567.56;4177867;28;20011;-63
2023/03/14 06:24:11;;;;;;;;;;;;;;;10.88;74.88;98593.50;4175655;28;19964;-63
2023/03/14 06:26:21;;;;;;;;;;;;;;;10.87;74.22;98579.19;4178751;28;20012;-63
2023/03/14 06:28:24;;;;;;;;;;;;;;;10.86;73.91;98587.50;4192217;28;20031;-62
2023/03/14 06:30:26;;;;;;;;;;;;;;;10.85;73.83;98584.00;4168772;28;20019;-64
2023/03/14 06:32:29;;;;;;;;;;;;;;;10.84;73.60;98593.16;4192337;28;20015;-63
2023/03/14 06:34:35;;;;;;;;;;;;;;;10.84;73.85;98592.34;4177711;28;20004;-63
2023/03/14 06:36:38;;;;;;;;;;;;;;;10.85;73.66;98596.69;4176667;28;20039;-64
2023/03/14 06:38:40;;;;;;;;;;;;;;;10.85;73.34;98599.38;4193886;28;20455;-63
2023/03/14 06:40:43;;;;;;;;;;;;;;;10.85;73.68;98591.28;4177560;28;20015;-63
2023/03/14 06:42:48;;;;;;;;;;;;;;;10.87;73.81;98606.19;4169377;28;20395;-64
2023/03/14 06:44:51;;;;;;;;;;;;;;;10.86;73.47;98588.34;4177400;28;19925;-64
2023/03/14 06:46:54;;;;;;;;;;;;;;;10.87;73.50;98613.47;4161343;28;20617;-63
2023/03/14 06:48:56;;;;;;;;;;;;;;;10.88;73.20;98591.63;4177766;28;20019;-63
2023/03/14 06:50:58;;;;;;;;;;;;;;;10.88;73.49;98605.16;4177496;28;20024;-63
2023/03/14 06:53:02;;;;;;;;;;;;;;;10.91;73.49;98603.84;4177050;28;20365;-63
2023/03/14 06:55:06;;;;;;;;;;;;;;;10.92;73.36;98617.09;4177544;28;20463;-63
2023/03/14 06:57:08;;;;;;;;;;;;;;;10.95;73.93;98613.13;4193728;28;20424;-63
2023/03/14 06:59:10;;;;;;;;;;;;;;;10.95;73.84;98623.94;4169858;28;20011;-63
2023/03/14 07:01:16;;;;;;;;;;;;;;;10.96;73.45;98621.00;4179041;28;20020;-63
2023/03/14 07:03:18;;;;;;;;;;;;;;;10.98;73.53;98624.28;4169098;28;20028;-63
2023/03/14 07:05:24;;;;;;;;;;;;;;;10.99;73.51;98625.13;4194334;28;20406;-62
2023/03/14 07:07:26;;;;;;;;;;;;;;;10.99;73.17;98644.03;4176506;28;20012;-62
2023/03/14 07:09:30;;;;;;;;;;;;;;;10.99;73.00;98627.84;4178792;28;20019;-62
2023/03/14 07:11:35;;;;;;;;;;;;;;;10.99;72.97;98631.34;4176636;28;20446;-63
2023/03/14 07:13:38;;;;;;;;;;;;;;;10.98;73.26;98635.09;4177237;28;20712;-61
2023/03/14 07:15:42;;;;;;;;;;;;;;;11.02;73.64;98648.13;4177995;28;19956;-63
2023/03/14 07:17:45;;;;;;;;;;;;;;;11.06;74.41;98652.03;4192849;28;20034;-63
2023/03/14 07:19:47;;;;;;;;;;;;;;;11.03;73.29;98650.59;4193695;28;20004;-63
2023/03/14 07:21:50;;;;;;;;;;;;;;;11.05;73.17;98642.28;4168530;28;20031;-65
2023/03/14 07:23:58;;;;;;;;;;;;;;;11.06;73.91;98649.34;4168900;28;21815;-63
2023/03/14 07:26:02;;;;;;;;;;;;;;;11.06;73.54;98642.03;4177523;28;20044;-64
2023/03/14 07:28:05;;;;;;;;;;;;;;;11.07;73.09;98635.59;4176805;28;20031;-64
2023/03/14 07:30:09;;;;;;;;;;;;;;;11.08;73.44;98641.81;4175596;28;20265;-64
2023/03/14 07:32:14;;;;;;;;;;;;;;;11.08;72.79;98636.41;4176593;28;20434;-64
2023/03/14 07:34:16;;;;;;;;;;;;;;;11.10;73.22;98648.63;4169096;28;20511;-64
2023/03/14 07:36:20;;;;;;;;;;;;;;;11.11;73.13;98642.19;4168802;28;20060;-63
2023/03/14 07:38:22;;;;;;;;;;;;;;;11.12;72.68;98649.22;4169269;28;20023;-63
2023/03/14 07:40:43;;;;;;;;;;;;;;;11.11;72.32;98658.41;4178414;28;20027;-62
2023/03/14 07:42:48;;;;;;;;;;;;;;;11.11;72.20;98647.59;4177617;28;20024;-63
2023/03/14 07:44:52;;;;;;;;;;;;;;;11.12;72.44;98643.81;4169178;28;20012;-64
2023/03/14 07:46:54;;;;;;;;;;;;;;;11.15;73.29;98645.25;4177570;28;20494;-63
2023/03/14 07:48:56;;;;;;;;;;;;;;;11.15;73.29;98643.34;4177434;28;20021;-62
2023/03/14 07:50:58;;;;;;;;;;;;;;;11.15;72.59;98658.75;4177761;28;20108;-63
2023/03/14 07:53:00;;;;;;;;;;;;;;;11.16;73.37;98647.72;4168373;28;20011;-62
2023/03/14 07:55:02;;;;;;;;;;;;;;;11.19;73.23;98643.75;4177817;28;20015;-62
2023/03/14 07:57:04;;;;;;;;;;;;;;;11.18;73.18;98656.41;4177434;28;20015;-62
2023/03/14 07:59:08;;;;;;;;;;;;;;;11.16;72.43;98644.19;4177630;28;20016;-62
2023/03/14 08:01:10;;;;;;;;;;;;;;;11.18;72.95;98652.88;4176228;28;20033;-63
2023/03/14 08:03:12;;;;;;;;;;;;;;;11.21;72.84;98638.91;4176299;28;20031;-63
2023/03/14 08:05:14;;;;;;;;;;;;;;;11.25;73.83;98631.97;4178135;28;20450;-63
2023/03/14 08:07:16;;;;;;;;;;;;;;;11.27;73.44;98637.13;4177299;28;19969;-63
2023/03/14 08:09:18;;;;;;;;;;;;;;;11.31;73.41;98632.94;4177996;28;20381;-62
2023/03/14 08:11:23;;;;;;;;;;;;;;;11.32;73.67;98632.69;4177653;28;20371;-63
2023/03/14 08:13:25;;;;;;;;;;;;;;;11.34;73.23;98637.88;4177700;28;20023;-63
2023/03/14 08:15:29;;;;;;;;;;;;;;;11.35;72.28;98628.72;4176836;28;20008;-63
2023/03/14 08:17:31;;;;;;;;;;;;;;;11.36;72.68;98625.78;4192193;28;20497;-63
2023/03/14 08:19:33;;;;;;;;;;;;;;;11.38;72.45;98636.34;4177937;28;20096;-63
2023/03/14 08:21:35;;;;;;;;;;;;;;;11.39;73.05;98618.25;4177267;28;20020;-63
2023/03/14 08:23:37;;;;;;;;;;;;;;;11.41;72.94;98632.34;4177504;28;20071;-63
2023/03/14 08:25:42;;;;;;;;;;;;;;;11.42;72.37;98639.41;4177796;28;20585;-64
2023/03/14 08:27:44;;;;;;;;;;;;;;;11.42;72.73;98621.28;4177073;28;19925;-63
2023/03/14 08:29:46;;;;;;;;;;;;;;;11.44;72.64;98621.91;4178047;28;20573;-63
2023/03/14 08:31:49;;;;;;;;;;;;;;;11.46;72.89;98630.59;4177153;28;20012;-62
2023/03/14 08:33:52;;;;;;;;;;;;;;;11.47;72.40;98620.59;4177108;28;20505;-63
2023/03/14 08:35:55;;;;;;;;;;;;;;;11.47;72.58;98626.84;4178111;28;20446;-63
2023/03/14 08:37:57;;;;;;;;;;;;;;;11.49;72.21;98627.41;4192228;28;20007;-63
2023/03/14 08:39:59;;;;;;;;;;;;;;;11.50;72.03;98647.16;4177506;28;20019;-63
2023/03/14 08:42:01;;;;;;;;;;;;;;;11.49;71.47;98640.94;4176971;28;20477;-63
2023/03/14 08:44:03;;;;;;;;;;;;;;;11.47;71.43;98632.25;4177894;28;20019;-63
2023/03/14 08:46:05;;;;;;;;;;;;;;;11.48;71.84;98639.28;4177879;28;20028;-63
2023/03/14 08:48:08;;;;;;;;;;;;;;;11.47;71.20;98645.75;4176905;28;19928;-63
2023/03/14 08:50:11;;;;;;;;;;;;;;;11.48;71.64;98655.50;4177433;28;20159;-64
2023/03/14 08:52:15;;;;;;;;;;;;;;;11.51;72.19;98641.50;4177120;28;20015;-64
2023/03/14 08:54:18;;;;;;;;;;;;;;;11.54;71.79;98649.16;4177123;28;20027;-63
2023/03/14 08:56:20;;;;;;;;;;;;;;;11.53;71.74;98647.50;4177143;28;20023;-62
2023/03/14 08:58:23;;;;;;;;;;;;;;;11.57;71.15;98644.34;4177728;28;20039;-64
2023/03/14 09:00:25;;;;;;;;;;;;;;;11.58;71.78;98654.09;4177254;28;20055;-64
2023/03/14 09:02:27;;;;;;;;;;;;;;;11.58;71.18;98651.41;4176626;28;20019;-62
2023/03/14 09:04:30;;;;;;;;;;;;;;;11.57;71.26;98657.84;4177624;28;20023;-64
2023/03/14 09:06:32;;;;;;;;;;;;;;;11.57;71.33;98655.16;4176571;28;19925;-64
2023/03/14 09:08:35;;;;;;;;;;;;;;;11.57;71.11;98642.47;4180482;28;20393;-63
2023/03/14 09:10:38;;;;;;;;;;;;;;;11.60;71.64;98641.16;4179740;28;20102;-63
2023/03/14 09:12:40;;;;;;;;;;;;;;;11.59;71.39;98637.63;4171085;28;20016;-64
2023/03/14 09:14:42;;;;;;;;;;;;;;;11.61;71.28;98637.41;4180077;28;20375;-64
2023/03/14 09:16:44;;;;;;;;;;;;;;;11.62;71.33;98634.47;4179871;28;20036;-63
2023/03/14 09:18:46;;;;;;;;;;;;;;;11.63;71.52;98624.47;4179575;28;20023;-64
2023/03/14 09:20:49;;;;;;;;;;;;;;;11.70;73.11;98620.59;4179886;28;20011;-63
2023/03/14 09:22:51;;;;;;;;;;;;;;;11.82;73.64;98617.88;4179509;28;20028;-64
2023/03/14 09:24:53;;;;;;;;;;;;;;;11.99;73.06;98607.19;4180156;28;20028;-64
2023/03/14 09:26:55;;;;;;;;;;;;;;;12.17;72.17;98608.88;4179474;28;20072;-64
2023/03/14 09:28:57;;;;;;;;;;;;;;;12.35;71.50;98607.06;4195420;28;20373;-64
2023/03/14 09:31:00;;;;;;;;;;;;;;;12.49;71.89;98627.41;4180138;28;20406;-64
2023/03/14 09:33:02;;;;;;;;;;;;;;;12.64;71.38;98616.03;4180096;28;20031;-64
2023/03/14 09:35:04;;;;;;;;;;;;;;;12.83;70.35;98624.75;4179838;28;20035;-63
2023/03/14 09:37:07;;;;;;;;;;;;;;;12.98;69.18;98622.31;4178604;28;20635;-63
2023/03/14 09:39:09;;;;;;;;;;;;;;;13.13;68.71;98607.38;4170812;28;19956;-63
2023/03/14 09:41:13;;;;;;;;;;;;;;;13.27;67.99;98629.56;4195309;28;20446;-63
2023/03/14 09:43:15;;;;;;;;;;;;;;;13.39;65.90;98624.09;4194266;28;20464;-63
2023/03/14 09:45:18;;;;;;;;;;;;;;;13.50;65.91;98618.56;4178706;28;20028;-65
2023/03/14 09:47:20;;;;;;;;;;;;;;;13.66;65.96;98621.53;4179371;28;20011;-63
2023/03/14 09:49:23;;;;;;;;;;;;;;;13.78;65.58;98624.94;4194892;28;20481;-63
2023/03/14 09:51:25;;;;;;;;;;;;;;;13.90;64.62;98615.88;4179778;28;20023;-63
2023/03/14 09:53:29;;;;;;;;;;;;;;;13.95;64.13;98659.34;4179053;28;20027;-64
2023/03/14 09:55:31;;;;;;;;;;;;;;;13.91;62.86;98617.53;4179602;28;20012;-63
2023/03/14 09:57:34;;;;;;;;;;;;;;;13.91;63.19;98618.34;4178675;28;20466;-64
2023/03/14 09:59:36;;;;;;;;;;;;;;;13.86;62.21;98612.84;4179575;28;20016;-63
2023/03/14 10:01:38;;;;;;;;;;;;;;;13.80;62.29;98635.56;4178942;28;20023;-63
2023/03/14 10:03:41;;;;;;;;;;;;;;;13.72;63.13;98617.00;4178979;28;20020;-63
2023/03/14 10:05:43;;;;;;;;;;;;;;;13.67;62.26;98618.56;4178897;28;20024;-62
2023/03/14 10:07:45;;;;;;;;;;;;;;;13.60;64.28;98625.22;4179494;28;20024;-62
2023/03/14 10:09:50;;;;;;;;;;;;;;;13.55;62.90;98609.69;4179750;28;20387;-63
2023/03/14 10:11:55;;;;;;;;;;;;;;;13.48;63.67;98631.56;4178879;28;19999;-64
2023/03/14 10:14:05;;;;;;;;;;;;;;;13.44;64.88;98622.28;4179132;28;20446;-64
2023/03/14 10:16:07;;;;;;;;;;;;;;;13.39;63.83;98624.09;4165730;28;20023;-63
2023/03/14 10:18:12;;;;;;;;;;;;;;;13.33;63.62;98618.59;4178319;28;20067;-63
2023/03/14 10:20:27;;;;;;;;;;;;;;;13.28;63.78;98629.31;4193329;28;20936;-63
2023/03/14 10:22:30;;;;;;;;;;;;;;;13.22;63.80;98627.59;4178994;28;20019;-63
2023/03/14 10:24:33;;;;;;;;;;;;;;;13.17;63.95;98619.38;4179442;28;21097;-63
2023/03/14 10:26:36;;;;;;;;;;;;;;;13.16;64.26;98617.72;4179090;28;20016;-64
2023/03/14 10:28:39;;;;;;;;;;;;;;;13.10;64.70;98634.97;4179110;28;20032;-64
2023/03/14 10:30:44;;;;;;;;;;;;;;;13.09;64.23;98630.66;4194586;28;20389;-64
2023/03/14 10:32:46;;;;;;;;;;;;;;;13.04;64.68;98627.81;4178255;28;20430;-63
2023/03/14 10:35:04;;;;;;;;;;;;;;;13.00;64.62;98627.50;4179276;28;20019;-63
2023/03/14 10:37:07;;;;;;;;;;;;;;;12.97;63.74;98668.63;4178620;28;20023;-64
2023/03/14 10:39:22;;;;;;;;;;;;;;;12.95;63.80;98632.84;4178957;28;20027;-64
2023/03/14 10:41:25;;;;;;;;;;;;;;;12.91;63.10;98634.38;4178666;28;20379;-63
2023/03/14 10:43:29;;;;;;;;;;;;;;;12.88;63.31;98624.84;4178710;28;20458;-63
2023/03/14 10:45:35;;;;;;;;;;;;;;;12.84;65.08;98626.41;4164890;28;20550;-64
2023/03/14 10:47:39;;;;;;;;;;;;;;;12.80;64.37;98634.22;4178188;28;20019;-63
2023/03/14 10:49:41;;;;;;;;;;;;;;;12.80;62.96;98622.53;4178365;28;20455;-63
2023/03/14 10:51:43;;;;;;;;;;;;;;;12.78;63.24;98619.25;4178041;28;19974;-63
2023/03/14 10:53:45;;;;;;;;;;;;;;;12.77;65.58;98625.72;4178907;28;20023;-64